This is the latest recevied weather packets stored in our database for station/object DF9PM-13. If no packets are shown the sender has not sent any weather packets the latest 10 day(s).
| Time | Temp. | Humidity | Pressure | Rain* | Wind** | Luminosity | Snow |
|---|---|---|---|---|---|---|---|
| 1777851627 | 14.44° C | 85% | 1013.7 hPa | - | - | - | - |
| 1777851327 | 14.44° C | 87% | 1013.8 hPa | - | - | - | - |
| 1777851027 | 14.44° C | 87% | 1013.8 hPa | - | - | - | - |
| 1777850727 | 13.33° C | 90% | 1013.8 hPa | - | - | - | - |
| 1777850427 | 14.44° C | 86% | 1013.9 hPa | - | - | - | - |
| 1777850127 | 14.44° C | 88% | 1013.9 hPa | - | - | - | - |
| 1777849827 | 13.89° C | 91% | 1013.9 hPa | - | - | - | - |
| 1777849527 | 14.44° C | 93% | 1013.9 hPa | - | - | - | - |
| 1777849227 | 15° C | 88% | 1013.9 hPa | - | - | - | - |
| 1777848927 | 15° C | 88% | 1013.8 hPa | - | - | - | - |
| 1777848627 | 15° C | 90% | 1013.9 hPa | - | - | - | - |
| 1777848327 | 15.56° C | 90% | 1013.9 hPa | - | - | - | - |
| 1777848027 | 15.56° C | 91% | 1013.9 hPa | - | - | - | - |
| 1777847727 | 15.56° C | 89% | 1013.9 hPa | - | - | - | - |
| 1777847427 | 15.56° C | 89% | 1013.8 hPa | - | - | - | - |
| 1777847127 | 15.56° C | 87% | 1013.9 hPa | - | - | - | - |
| 1777846827 | 16.11° C | 86% | 1013.8 hPa | - | - | - | - |
| 1777846527 | 16.11° C | 89% | 1013.8 hPa | - | - | - | - |
| 1777846226 | 15.56° C | 92% | 1013.8 hPa | - | - | - | - |
| 1777845926 | 16.11° C | 89% | 1013.8 hPa | - | - | - | - |
| 1777845626 | 15.56° C | 93% | 1013.8 hPa | - | - | - | - |
| 1777845326 | 16.11° C | 93% | 1013.7 hPa | - | - | - | - |
| 1777845026 | 16.11° C | 91% | 1013.8 hPa | - | - | - | - |
| 1777844726 | 16.67° C | 89% | 1013.8 hPa | - | - | - | - |
| 1777844426 | 16.67° C | 89% | 1013.8 hPa | - | - | - | - |
* Rain since midnight (hover to see other rain measurements)
** Current wind speed in m/s (hover to see current wind gust speed)